sensor_id;sensor_type;location;lat;lon;timestamp;temperature;humidity
51383;DHT22;37475;43.358;1.248;2023-03-08T00:00:33;4.30;95.80
51383;DHT22;37475;43.358;1.248;2023-03-08T00:03:00;4.20;95.70
51383;DHT22;37475;43.358;1.248;2023-03-08T00:05:27;4.20;95.70
51383;DHT22;37475;43.358;1.248;2023-03-08T00:07:53;4.10;95.70
51383;DHT22;37475;43.358;1.248;2023-03-08T00:10:20;4.10;95.70
51383;DHT22;37475;43.358;1.248;2023-03-08T00:12:47;3.90;95.60
51383;DHT22;37475;43.358;1.248;2023-03-08T00:15:13;3.90;95.60
51383;DHT22;37475;43.358;1.248;2023-03-08T00:17:39;3.80;95.60
51383;DHT22;37475;43.358;1.248;2023-03-08T00:20:07;3.60;95.50
51383;DHT22;37475;43.358;1.248;2023-03-08T00:22:38;3.60;95.60
51383;DHT22;37475;43.358;1.248;2023-03-08T00:25:05;3.60;95.60
51383;DHT22;37475;43.358;1.248;2023-03-08T00:27:34;3.70;95.50
51383;DHT22;37475;43.358;1.248;2023-03-08T00:30:02;3.70;95.60
51383;DHT22;37475;43.358;1.248;2023-03-08T00:32:30;3.80;95.60
51383;DHT22;37475;43.358;1.248;2023-03-08T00:34:56;3.90;95.60
51383;DHT22;37475;43.358;1.248;2023-03-08T00:37:22;3.80;95.60
51383;DHT22;37475;43.358;1.248;2023-03-08T00:39:51;3.80;95.70
51383;DHT22;37475;43.358;1.248;2023-03-08T00:42:19;3.90;95.80
51383;DHT22;37475;43.358;1.248;2023-03-08T00:44:46;4.00;95.90
51383;DHT22;37475;43.358;1.248;2023-03-08T00:47:11;4.10;95.90
51383;DHT22;37475;43.358;1.248;2023-03-08T00:49:37;4.10;95.90
51383;DHT22;37475;43.358;1.248;2023-03-08T00:52:04;4.20;95.80
51383;DHT22;37475;43.358;1.248;2023-03-08T00:54:30;4.10;95.80
51383;DHT22;37475;43.358;1.248;2023-03-08T00:56:56;3.90;95.70
51383;DHT22;37475;43.358;1.248;2023-03-08T00:59:22;4.00;95.90
51383;DHT22;37475;43.358;1.248;2023-03-08T01:01:48;4.10;95.90
51383;DHT22;37475;43.358;1.248;2023-03-08T01:04:14;4.10;95.90
51383;DHT22;37475;43.358;1.248;2023-03-08T01:06:40;4.00;95.90
51383;DHT22;37475;43.358;1.248;2023-03-08T01:09:07;4.10;96.00
51383;DHT22;37475;43.358;1.248;2023-03-08T01:11:34;4.20;96.00
51383;DHT22;37475;43.358;1.248;2023-03-08T01:14:02;4.30;96.00
51383;DHT22;37475;43.358;1.248;2023-03-08T01:16:31;4.30;96.00
51383;DHT22;37475;43.358;1.248;2023-03-08T01:18:59;4.40;96.10
51383;DHT22;37475;43.358;1.248;2023-03-08T01:21:27;4.50;96.20
51383;DHT22;37475;43.358;1.248;2023-03-08T01:23:54;4.60;96.30
51383;DHT22;37475;43.358;1.248;2023-03-08T01:26:22;4.60;96.30
51383;DHT22;37475;43.358;1.248;2023-03-08T01:28:50;4.70;96.40
51383;DHT22;37475;43.358;1.248;2023-03-08T01:31:19;4.80;96.50
51383;DHT22;37475;43.358;1.248;2023-03-08T01:33:47;4.90;96.60
51383;DHT22;37475;43.358;1.248;2023-03-08T01:36:15;5.00;96.60
51383;DHT22;37475;43.358;1.248;2023-03-08T01:38:42;5.00;96.60
51383;DHT22;37475;43.358;1.248;2023-03-08T01:41:14;5.10;96.70
51383;DHT22;37475;43.358;1.248;2023-03-08T01:43:51;5.20;96.80
51383;DHT22;37475;43.358;1.248;2023-03-08T01:51:45;5.30;96.90
51383;DHT22;37475;43.358;1.248;2023-03-08T01:54:29;5.20;97.00
51383;DHT22;37475;43.358;1.248;2023-03-08T01:57:02;5.30;97.00
51383;DHT22;37475;43.358;1.248;2023-03-08T01:59:33;5.30;97.00
51383;DHT22;37475;43.358;1.248;2023-03-08T02:02:00;5.30;97.00
51383;DHT22;37475;43.358;1.248;2023-03-08T02:04:27;5.30;97.00
51383;DHT22;37475;43.358;1.248;2023-03-08T02:06:52;5.40;97.00
51383;DHT22;37475;43.358;1.248;2023-03-08T02:09:19;5.30;97.00
51383;DHT22;37475;43.358;1.248;2023-03-08T02:11:46;5.40;97.10
51383;DHT22;37475;43.358;1.248;2023-03-08T02:14:12;5.40;97.00
51383;DHT22;37475;43.358;1.248;2023-03-08T02:16:38;5.40;97.10
51383;DHT22;37475;43.358;1.248;2023-03-08T02:19:11;5.50;97.00
51383;DHT22;37475;43.358;1.248;2023-03-08T02:21:40;5.50;97.10
51383;DHT22;37475;43.358;1.248;2023-03-08T02:24:17;5.60;97.10
51383;DHT22;37475;43.358;1.248;2023-03-08T02:26:45;5.60;97.00
51383;DHT22;37475;43.358;1.248;2023-03-08T02:29:11;5.60;97.00
51383;DHT22;37475;43.358;1.248;2023-03-08T02:31:37;5.60;97.00
51383;DHT22;37475;43.358;1.248;2023-03-08T02:34:03;5.70;97.00
51383;DHT22;37475;43.358;1.248;2023-03-08T02:36:29;5.70;97.00
51383;DHT22;37475;43.358;1.248;2023-03-08T02:38:55;5.60;97.00
51383;DHT22;37475;43.358;1.248;2023-03-08T02:41:20;5.60;97.00
51383;DHT22;37475;43.358;1.248;2023-03-08T02:43:47;5.50;97.00
51383;DHT22;37475;43.358;1.248;2023-03-08T02:46:13;5.40;96.90
51383;DHT22;37475;43.358;1.248;2023-03-08T02:48:39;5.40;97.00
51383;DHT22;37475;43.358;1.248;2023-03-08T02:51:05;5.40;97.00
51383;DHT22;37475;43.358;1.248;2023-03-08T02:53:31;5.20;96.90
51383;DHT22;37475;43.358;1.248;2023-03-08T02:55:57;5.20;97.00
51383;DHT22;37475;43.358;1.248;2023-03-08T02:58:22;5.00;96.90
51383;DHT22;37475;43.358;1.248;2023-03-08T03:00:48;4.80;96.90
51383;DHT22;37475;43.358;1.248;2023-03-08T03:03:15;4.80;96.90
51383;DHT22;37475;43.358;1.248;2023-03-08T03:05:42;4.80;96.90
51383;DHT22;37475;43.358;1.248;2023-03-08T03:08:09;4.80;96.90
51383;DHT22;37475;43.358;1.248;2023-03-08T03:10:37;4.70;96.80
51383;DHT22;37475;43.358;1.248;2023-03-08T03:13:04;4.70;96.80
51383;DHT22;37475;43.358;1.248;2023-03-08T03:15:31;4.70;96.90
51383;DHT22;37475;43.358;1.248;2023-03-08T03:17:57;4.80;96.90
51383;DHT22;37475;43.358;1.248;2023-03-08T03:20:24;4.90;96.80
51383;DHT22;37475;43.358;1.248;2023-03-08T03:22:50;4.90;96.80
51383;DHT22;37475;43.358;1.248;2023-03-08T03:25:16;4.90;96.80
51383;DHT22;37475;43.358;1.248;2023-03-08T03:27:41;4.90;96.80
51383;DHT22;37475;43.358;1.248;2023-03-08T03:30:08;4.90;96.70
51383;DHT22;37475;43.358;1.248;2023-03-08T03:32:34;4.80;96.70
51383;DHT22;37475;43.358;1.248;2023-03-08T03:35:01;4.80;96.70
51383;DHT22;37475;43.358;1.248;2023-03-08T03:37:27;4.90;96.70
51383;DHT22;37475;43.358;1.248;2023-03-08T03:39:53;4.90;96.70
51383;DHT22;37475;43.358;1.248;2023-03-08T03:42:18;4.80;96.60
51383;DHT22;37475;43.358;1.248;2023-03-08T03:44:44;4.70;96.60
51383;DHT22;37475;43.358;1.248;2023-03-08T03:47:10;4.70;96.60
51383;DHT22;37475;43.358;1.248;2023-03-08T03:49:36;4.60;96.60
51383;DHT22;37475;43.358;1.248;2023-03-08T03:52:02;4.70;96.60
51383;DHT22;37475;43.358;1.248;2023-03-08T03:54:28;4.70;96.60
51383;DHT22;37475;43.358;1.248;2023-03-08T03:56:54;4.70;96.60
51383;DHT22;37475;43.358;1.248;2023-03-08T03:59:23;4.70;96.70
51383;DHT22;37475;43.358;1.248;2023-03-08T04:01:49;4.80;96.70
51383;DHT22;37475;43.358;1.248;2023-03-08T04:04:15;4.70;96.70
51383;DHT22;37475;43.358;1.248;2023-03-08T04:06:41;4.70;96.70
51383;DHT22;37475;43.358;1.248;2023-03-08T04:09:12;4.70;96.80
51383;DHT22;37475;43.358;1.248;2023-03-08T04:11:40;4.60;96.70
51383;DHT22;37475;43.358;1.248;2023-03-08T04:14:06;4.60;96.80
51383;DHT22;37475;43.358;1.248;2023-03-08T04:16:34;4.60;96.80
51383;DHT22;37475;43.358;1.248;2023-03-08T04:19:03;4.40;96.90
51383;DHT22;37475;43.358;1.248;2023-03-08T04:21:32;4.50;96.90
51383;DHT22;37475;43.358;1.248;2023-03-08T04:23:58;4.60;96.90
51383;DHT22;37475;43.358;1.248;2023-03-08T04:26:24;4.60;96.80
51383;DHT22;37475;43.358;1.248;2023-03-08T04:28:50;4.50;96.80
51383;DHT22;37475;43.358;1.248;2023-03-08T04:31:22;4.60;96.90
51383;DHT22;37475;43.358;1.248;2023-03-08T04:33:54;4.60;96.90
51383;DHT22;37475;43.358;1.248;2023-03-08T04:36:21;4.60;96.90
51383;DHT22;37475;43.358;1.248;2023-03-08T04:38:47;4.70;96.90
51383;DHT22;37475;43.358;1.248;2023-03-08T04:41:14;4.70;96.90
51383;DHT22;37475;43.358;1.248;2023-03-08T04:43:45;4.70;96.90
51383;DHT22;37475;43.358;1.248;2023-03-08T04:46:12;4.80;96.90
51383;DHT22;37475;43.358;1.248;2023-03-08T04:48:38;4.80;96.90
51383;DHT22;37475;43.358;1.248;2023-03-08T04:51:06;4.90;96.90
51383;DHT22;37475;43.358;1.248;2023-03-08T04:53:33;4.90;96.90
51383;DHT22;37475;43.358;1.248;2023-03-08T04:56:00;4.90;96.90
51383;DHT22;37475;43.358;1.248;2023-03-08T04:58:27;4.90;96.90
51383;DHT22;37475;43.358;1.248;2023-03-08T05:00:54;4.90;96.90
51383;DHT22;37475;43.358;1.248;2023-03-08T05:03:20;4.90;96.90
51383;DHT22;37475;43.358;1.248;2023-03-08T05:05:48;4.90;96.90
51383;DHT22;37475;43.358;1.248;2023-03-08T05:08:16;5.00;96.90
51383;DHT22;37475;43.358;1.248;2023-03-08T05:10:49;5.00;96.90
51383;DHT22;37475;43.358;1.248;2023-03-08T05:13:26;5.00;96.90
51383;DHT22;37475;43.358;1.248;2023-03-08T05:15:53;5.00;96.80
51383;DHT22;37475;43.358;1.248;2023-03-08T05:18:20;5.10;96.80
51383;DHT22;37475;43.358;1.248;2023-03-08T05:20:57;5.00;96.80
51383;DHT22;37475;43.358;1.248;2023-03-08T05:23:24;5.10;96.80
51383;DHT22;37475;43.358;1.248;2023-03-08T05:25:56;5.10;96.80
51383;DHT22;37475;43.358;1.248;2023-03-08T05:28:24;5.10;96.90
51383;DHT22;37475;43.358;1.248;2023-03-08T05:31:18;5.10;96.90
51383;DHT22;37475;43.358;1.248;2023-03-08T05:33:47;5.20;96.90
51383;DHT22;37475;43.358;1.248;2023-03-08T05:36:16;5.20;96.90
51383;DHT22;37475;43.358;1.248;2023-03-08T05:38:42;5.20;96.80
51383;DHT22;37475;43.358;1.248;2023-03-08T05:41:12;5.30;96.80
51383;DHT22;37475;43.358;1.248;2023-03-08T05:43:39;5.30;96.80
51383;DHT22;37475;43.358;1.248;2023-03-08T05:46:09;5.20;96.80
51383;DHT22;37475;43.358;1.248;2023-03-08T05:48:37;5.10;96.80
51383;DHT22;37475;43.358;1.248;2023-03-08T05:51:08;5.20;96.80
51383;DHT22;37475;43.358;1.248;2023-03-08T05:53:36;5.10;96.90
51383;DHT22;37475;43.358;1.248;2023-03-08T05:56:09;5.10;96.90
51383;DHT22;37475;43.358;1.248;2023-03-08T05:58:35;5.10;97.00
51383;DHT22;37475;43.358;1.248;2023-03-08T06:01:15;5.10;97.10
51383;DHT22;37475;43.358;1.248;2023-03-08T06:03:44;5.00;97.10
51383;DHT22;37475;43.358;1.248;2023-03-08T06:06:11;5.00;97.10
51383;DHT22;37475;43.358;1.248;2023-03-08T06:08:37;5.00;97.00
51383;DHT22;37475;43.358;1.248;2023-03-08T06:11:03;5.00;97.00
51383;DHT22;37475;43.358;1.248;2023-03-08T06:13:29;5.00;97.00
51383;DHT22;37475;43.358;1.248;2023-03-08T06:15:56;4.90;97.00
51383;DHT22;37475;43.358;1.248;2023-03-08T06:18:23;5.00;97.00
51383;DHT22;37475;43.358;1.248;2023-03-08T06:20:57;5.00;97.00
51383;DHT22;37475;43.358;1.248;2023-03-08T06:23:29;5.00;97.00
51383;DHT22;37475;43.358;1.248;2023-03-08T06:25:55;5.00;97.20
51383;DHT22;37475;43.358;1.248;2023-03-08T06:28:22;5.10;97.10
51383;DHT22;37475;43.358;1.248;2023-03-08T06:30:49;5.00;97.00
51383;DHT22;37475;43.358;1.248;2023-03-08T06:33:20;5.00;97.00
51383;DHT22;37475;43.358;1.248;2023-03-08T06:35:55;5.10;97.00
51383;DHT22;37475;43.358;1.248;2023-03-08T06:38:22;5.10;96.90
51383;DHT22;37475;43.358;1.248;2023-03-08T06:40:49;5.10;96.90
51383;DHT22;37475;43.358;1.248;2023-03-08T06:43:15;5.20;96.90
51383;DHT22;37475;43.358;1.248;2023-03-08T06:45:40;5.20;96.90
51383;DHT22;37475;43.358;1.248;2023-03-08T06:48:06;5.30;96.90
51383;DHT22;37475;43.358;1.248;2023-03-08T06:50:33;5.30;96.80
51383;DHT22;37475;43.358;1.248;2023-03-08T06:52:59;5.40;96.80
51383;DHT22;37475;43.358;1.248;2023-03-08T06:55:26;5.40;96.80
51383;DHT22;37475;43.358;1.248;2023-03-08T06:57:52;5.40;96.80
51383;DHT22;37475;43.358;1.248;2023-03-08T07:00:20;5.40;96.70
51383;DHT22;37475;43.358;1.248;2023-03-08T07:02:47;5.40;96.70
51383;DHT22;37475;43.358;1.248;2023-03-08T07:05:14;5.50;96.70
51383;DHT22;37475;43.358;1.248;2023-03-08T07:07:43;5.60;96.70
51383;DHT22;37475;43.358;1.248;2023-03-08T07:10:11;5.70;96.70
51383;DHT22;37475;43.358;1.248;2023-03-08T07:12:42;5.70;96.70
51383;DHT22;37475;43.358;1.248;2023-03-08T07:15:12;5.80;96.70
51383;DHT22;37475;43.358;1.248;2023-03-08T07:17:40;5.80;96.70
51383;DHT22;37475;43.358;1.248;2023-03-08T07:20:07;5.90;96.70
51383;DHT22;37475;43.358;1.248;2023-03-08T07:22:34;6.00;96.70
51383;DHT22;37475;43.358;1.248;2023-03-08T07:24:59;6.10;96.70
51383;DHT22;37475;43.358;1.248;2023-03-08T07:27:25;6.10;96.60
51383;DHT22;37475;43.358;1.248;2023-03-08T07:29:51;6.20;96.60
51383;DHT22;37475;43.358;1.248;2023-03-08T07:32:17;6.30;96.60
51383;DHT22;37475;43.358;1.248;2023-03-08T07:34:43;6.40;96.50
51383;DHT22;37475;43.358;1.248;2023-03-08T07:37:13;6.50;96.50
51383;DHT22;37475;43.358;1.248;2023-03-08T07:39:40;6.60;96.40
51383;DHT22;37475;43.358;1.248;2023-03-08T07:42:07;6.60;96.30
51383;DHT22;37475;43.358;1.248;2023-03-08T07:44:34;6.70;96.30
51383;DHT22;37475;43.358;1.248;2023-03-08T07:47:02;6.80;96.30
51383;DHT22;37475;43.358;1.248;2023-03-08T07:49:29;6.70;96.10
51383;DHT22;37475;43.358;1.248;2023-03-08T07:51:55;6.80;96.00
51383;DHT22;37475;43.358;1.248;2023-03-08T07:54:21;6.90;95.90
51383;DHT22;37475;43.358;1.248;2023-03-08T07:56:46;7.00;95.90
51383;DHT22;37475;43.358;1.248;2023-03-08T07:59:12;7.00;95.70
51383;DHT22;37475;43.358;1.248;2023-03-08T08:01:38;7.10;95.80
51383;DHT22;37475;43.358;1.248;2023-03-08T08:04:04;7.20;95.70
51383;DHT22;37475;43.358;1.248;2023-03-08T08:06:34;7.10;95.30
51383;DHT22;37475;43.358;1.248;2023-03-08T08:09:01;7.20;95.30
51383;DHT22;37475;43.358;1.248;2023-03-08T08:11:26;7.30;95.20
51383;DHT22;37475;43.358;1.248;2023-03-08T08:13:52;7.40;95.00
51383;DHT22;37475;43.358;1.248;2023-03-08T08:16:18;7.50;95.00
51383;DHT22;37475;43.358;1.248;2023-03-08T08:18:44;7.60;95.00
51383;DHT22;37475;43.358;1.248;2023-03-08T08:21:13;7.80;94.90
51383;DHT22;37475;43.358;1.248;2023-03-08T08:23:40;8.00;94.70
51383;DHT22;37475;43.358;1.248;2023-03-08T08:26:10;8.20;94.60
51383;DHT22;37475;43.358;1.248;2023-03-08T08:28:39;8.30;94.50
51383;DHT22;37475;43.358;1.248;2023-03-08T08:31:09;8.30;94.20
51383;DHT22;37475;43.358;1.248;2023-03-08T08:33:36;8.40;94.20
51383;DHT22;37475;43.358;1.248;2023-03-08T08:36:08;8.60;94.00
51383;DHT22;37475;43.358;1.248;2023-03-08T08:38:36;8.70;93.80
51383;DHT22;37475;43.358;1.248;2023-03-08T08:41:04;9.00;93.70
51383;DHT22;37475;43.358;1.248;2023-03-08T08:43:31;9.10;93.60
51383;DHT22;37475;43.358;1.248;2023-03-08T08:45:58;9.20;93.30
51383;DHT22;37475;43.358;1.248;2023-03-08T08:48:25;9.50;93.20
51383;DHT22;37475;43.358;1.248;2023-03-08T08:50:52;9.60;92.70
51383;DHT22;37475;43.358;1.248;2023-03-08T08:53:18;9.80;92.30
51383;DHT22;37475;43.358;1.248;2023-03-08T08:55:45;10.00;91.70
51383;DHT22;37475;43.358;1.248;2023-03-08T08:58:11;10.10;90.80
51383;DHT22;37475;43.358;1.248;2023-03-08T09:00:37;10.20;90.30
51383;DHT22;37475;43.358;1.248;2023-03-08T09:03:04;10.50;90.10
51383;DHT22;37475;43.358;1.248;2023-03-08T09:05:31;10.60;90.20
51383;DHT22;37475;43.358;1.248;2023-03-08T09:07:59;10.80;89.90
51383;DHT22;37475;43.358;1.248;2023-03-08T09:10:28;11.00;89.30
51383;DHT22;37475;43.358;1.248;2023-03-08T09:12:54;11.10;88.80
51383;DHT22;37475;43.358;1.248;2023-03-08T09:15:20;11.10;89.30
51383;DHT22;37475;43.358;1.248;2023-03-08T09:17:47;11.30;89.40
51383;DHT22;37475;43.358;1.248;2023-03-08T09:20:14;11.50;89.30
51383;DHT22;37475;43.358;1.248;2023-03-08T09:22:40;11.90;88.90
51383;DHT22;37475;43.358;1.248;2023-03-08T09:25:07;12.10;86.60
51383;DHT22;37475;43.358;1.248;2023-03-08T09:27:36;12.30;86.60
51383;DHT22;37475;43.358;1.248;2023-03-08T09:30:03;12.40;86.20
51383;DHT22;37475;43.358;1.248;2023-03-08T09:32:32;12.60;84.70
51383;DHT22;37475;43.358;1.248;2023-03-08T09:34:59;12.80;84.10
51383;DHT22;37475;43.358;1.248;2023-03-08T09:37:25;12.80;85.00
51383;DHT22;37475;43.358;1.248;2023-03-08T09:39:51;13.10;85.20
51383;DHT22;37475;43.358;1.248;2023-03-08T09:42:20;13.20;84.40
51383;DHT22;37475;43.358;1.248;2023-03-08T09:47:56;13.00;84.30
51383;DHT22;37475;43.358;1.248;2023-03-08T09:53:37;13.00;86.00
51383;DHT22;37475;43.358;1.248;2023-03-08T09:56:28;13.10;85.70
51383;DHT22;37475;43.358;1.248;2023-03-08T09:59:24;13.30;85.00
51383;DHT22;37475;43.358;1.248;2023-03-08T10:05:02;13.50;84.70
51383;DHT22;37475;43.358;1.248;2023-03-08T10:07:47;13.80;84.10
51383;DHT22;37475;43.358;1.248;2023-03-08T10:10:29;13.90;82.80
51383;DHT22;37475;43.358;1.248;2023-03-08T10:13:30;14.10;82.80
51383;DHT22;37475;43.358;1.248;2023-03-08T10:21:37;14.80;81.10
51383;DHT22;37475;43.358;1.248;2023-03-08T10:27:05;14.90;80.00
51383;DHT22;37475;43.358;1.248;2023-03-08T10:29:52;15.10;78.10
51383;DHT22;37475;43.358;1.248;2023-03-08T10:32:20;15.20;78.90
51383;DHT22;37475;43.358;1.248;2023-03-08T10:34:46;15.40;78.60
51383;DHT22;37475;43.358;1.248;2023-03-08T10:37:12;15.30;76.40
51383;DHT22;37475;43.358;1.248;2023-03-08T10:39:52;15.40;77.60
51383;DHT22;37475;43.358;1.248;2023-03-08T10:42:25;15.60;77.50
51383;DHT22;37475;43.358;1.248;2023-03-08T10:45:02;15.70;77.40
51383;DHT22;37475;43.358;1.248;2023-03-08T10:47:35;15.90;75.70
51383;DHT22;37475;43.358;1.248;2023-03-08T10:50:05;16.10;76.10
51383;DHT22;37475;43.358;1.248;2023-03-08T10:52:38;16.20;75.80
51383;DHT22;37475;43.358;1.248;2023-03-08T10:55:10;16.50;75.50
51383;DHT22;37475;43.358;1.248;2023-03-08T10:57:54;16.40;73.00
51383;DHT22;37475;43.358;1.248;2023-03-08T11:00:35;16.70;74.60
51383;DHT22;37475;43.358;1.248;2023-03-08T11:06:00;17.10;73.30
51383;DHT22;37475;43.358;1.248;2023-03-08T11:11:13;17.40;73.30
51383;DHT22;37475;43.358;1.248;2023-03-08T11:13:44;17.60;71.80
51383;DHT22;37475;43.358;1.248;2023-03-08T11:19:25;17.70;68.80
51383;DHT22;37475;43.358;1.248;2023-03-08T11:22:03;18.30;69.00
51383;DHT22;37475;43.358;1.248;2023-03-08T11:36:31;19.10;65.60
51383;DHT22;37475;43.358;1.248;2023-03-08T11:50:21;20.80;60.80
51383;DHT22;37475;43.358;1.248;2023-03-08T12:00:46;21.70;57.70
51383;DHT22;37475;43.358;1.248;2023-03-08T12:03:19;22.00;59.70
51383;DHT22;37475;43.358;1.248;2023-03-08T12:05:59;21.20;58.90
51383;DHT22;37475;43.358;1.248;2023-03-08T12:08:46;21.60;58.80
51383;DHT22;37475;43.358;1.248;2023-03-08T12:11:23;21.80;56.70
51383;DHT22;37475;43.358;1.248;2023-03-08T12:14:13;22.60;55.00
51383;DHT22;37475;43.358;1.248;2023-03-08T12:19:49;22.60;55.30
51383;DHT22;37475;43.358;1.248;2023-03-08T12:30:46;23.50;51.00
51383;DHT22;37475;43.358;1.248;2023-03-08T12:33:14;23.80;49.10
51383;DHT22;37475;43.358;1.248;2023-03-08T12:35:55;24.00;50.20
51383;DHT22;37475;43.358;1.248;2023-03-08T12:38:36;24.30;49.00
51383;DHT22;37475;43.358;1.248;2023-03-08T12:41:21;24.10;49.40
51383;DHT22;37475;43.358;1.248;2023-03-08T12:46:50;25.50;48.20
51383;DHT22;37475;43.358;1.248;2023-03-08T12:52:18;26.10;46.90
51383;DHT22;37475;43.358;1.248;2023-03-08T12:55:15;25.90;45.50
51383;DHT22;37475;43.358;1.248;2023-03-08T12:57:54;25.00;45.30
51383;DHT22;37475;43.358;1.248;2023-03-08T13:00:34;26.00;44.40
51383;DHT22;37475;43.358;1.248;2023-03-08T13:03:05;26.50;43.10
51383;DHT22;37475;43.358;1.248;2023-03-08T13:05:50;26.60;43.70
51383;DHT22;37475;43.358;1.248;2023-03-08T13:08:17;27.00;43.60
51383;DHT22;37475;43.358;1.248;2023-03-08T13:11:01;26.80;41.90
51383;DHT22;37475;43.358;1.248;2023-03-08T13:16:37;25.10;42.50
51383;DHT22;37475;43.358;1.248;2023-03-08T13:19:48;25.90;44.70
51383;DHT22;37475;43.358;1.248;2023-03-08T13:22:19;26.90;41.90
51383;DHT22;37475;43.358;1.248;2023-03-08T13:24:59;27.60;40.80
51383;DHT22;37475;43.358;1.248;2023-03-08T13:30:31;25.30;43.90
51383;DHT22;37475;43.358;1.248;2023-03-08T13:32:59;25.20;44.60
51383;DHT22;37475;43.358;1.248;2023-03-08T13:35:25;24.60;44.50
51383;DHT22;37475;43.358;1.248;2023-03-08T13:37:57;24.50;43.20
51383;DHT22;37475;43.358;1.248;2023-03-08T13:40:25;24.20;42.60
51383;DHT22;37475;43.358;1.248;2023-03-08T13:43:00;24.40;42.30
51383;DHT22;37475;43.358;1.248;2023-03-08T13:45:30;24.50;43.00
51383;DHT22;37475;43.358;1.248;2023-03-08T13:47:59;25.40;41.30
51383;DHT22;37475;43.358;1.248;2023-03-08T13:50:31;25.30;42.30
51383;DHT22;37475;43.358;1.248;2023-03-08T13:53:00;25.50;40.80
51383;DHT22;37475;43.358;1.248;2023-03-08T13:55:32;25.80;40.00
51383;DHT22;37475;43.358;1.248;2023-03-08T13:58:00;26.50;40.10
51383;DHT22;37475;43.358;1.248;2023-03-08T14:00:31;26.20;39.00
51383;DHT22;37475;43.358;1.248;2023-03-08T14:03:00;24.60;41.30
51383;DHT22;37475;43.358;1.248;2023-03-08T14:05:38;24.20;40.90
51383;DHT22;37475;43.358;1.248;2023-03-08T14:08:19;24.50;43.30
51383;DHT22;37475;43.358;1.248;2023-03-08T14:10:56;25.40;39.70
51383;DHT22;37475;43.358;1.248;2023-03-08T14:15:56;26.10;40.60
51383;DHT22;37475;43.358;1.248;2023-03-08T14:18:32;25.50;42.30
51383;DHT22;37475;43.358;1.248;2023-03-08T14:21:04;25.00;41.50
51383;DHT22;37475;43.358;1.248;2023-03-08T14:23:41;24.30;43.30
51383;DHT22;37475;43.358;1.248;2023-03-08T14:32:19;22.90;45.40
51383;DHT22;37475;43.358;1.248;2023-03-08T14:35:06;22.60;46.90
51383;DHT22;37475;43.358;1.248;2023-03-08T14:37:43;22.20;47.80
51383;DHT22;37475;43.358;1.248;2023-03-08T14:42:54;22.00;49.10
51383;DHT22;37475;43.358;1.248;2023-03-08T14:45:41;21.60;50.50
51383;DHT22;37475;43.358;1.248;2023-03-08T14:51:25;21.10;52.60
51383;DHT22;37475;43.358;1.248;2023-03-08T14:54:05;21.30;54.60
51383;DHT22;37475;43.358;1.248;2023-03-08T14:56:44;21.10;55.30
51383;DHT22;37475;43.358;1.248;2023-03-08T14:59:11;21.10;54.40
51383;DHT22;37475;43.358;1.248;2023-03-08T15:01:38;21.10;55.10
51383;DHT22;37475;43.358;1.248;2023-03-08T15:04:22;20.90;55.20
51383;DHT22;37475;43.358;1.248;2023-03-08T15:06:51;20.80;55.10
51383;DHT22;37475;43.358;1.248;2023-03-08T15:09:20;20.70;55.00
51383;DHT22;37475;43.358;1.248;2023-03-08T15:11:48;20.60;53.90
51383;DHT22;37475;43.358;1.248;2023-03-08T15:14:15;20.60;54.10
51383;DHT22;37475;43.358;1.248;2023-03-08T15:16:41;20.50;53.40
51383;DHT22;37475;43.358;1.248;2023-03-08T15:19:07;20.50;53.40
51383;DHT22;37475;43.358;1.248;2023-03-08T15:21:36;20.50;53.00
51383;DHT22;37475;43.358;1.248;2023-03-08T15:24:02;20.50;52.20
51383;DHT22;37475;43.358;1.248;2023-03-08T15:26:30;20.40;52.70
51383;DHT22;37475;43.358;1.248;2023-03-08T15:28:58;20.30;52.10
51383;DHT22;37475;43.358;1.248;2023-03-08T15:31:28;20.30;52.70
51383;DHT22;37475;43.358;1.248;2023-03-08T15:33:54;20.10;54.40
51383;DHT22;37475;43.358;1.248;2023-03-08T15:36:20;19.70;55.90
51383;DHT22;37475;43.358;1.248;2023-03-08T15:38:46;19.70;55.10
51383;DHT22;37475;43.358;1.248;2023-03-08T15:41:13;19.70;54.80
51383;DHT22;37475;43.358;1.248;2023-03-08T15:43:40;19.60;54.60
51383;DHT22;37475;43.358;1.248;2023-03-08T15:46:12;19.70;54.00
51383;DHT22;37475;43.358;1.248;2023-03-08T15:48:38;19.80;53.80
51383;DHT22;37475;43.358;1.248;2023-03-08T15:51:04;19.80;56.00
51383;DHT22;37475;43.358;1.248;2023-03-08T15:53:30;19.60;54.20
51383;DHT22;37475;43.358;1.248;2023-03-08T15:55:56;19.80;51.60
51383;DHT22;37475;43.358;1.248;2023-03-08T15:58:22;19.70;53.40
51383;DHT22;37475;43.358;1.248;2023-03-08T16:00:47;19.60;54.80
51383;DHT22;37475;43.358;1.248;2023-03-08T16:03:13;19.50;55.10
51383;DHT22;37475;43.358;1.248;2023-03-08T16:05:39;19.60;54.10
51383;DHT22;37475;43.358;1.248;2023-03-08T16:08:05;19.60;52.60
51383;DHT22;37475;43.358;1.248;2023-03-08T16:10:34;19.60;51.90
51383;DHT22;37475;43.358;1.248;2023-03-08T16:13:05;19.60;51.80
51383;DHT22;37475;43.358;1.248;2023-03-08T16:15:32;19.50;52.10
51383;DHT22;37475;43.358;1.248;2023-03-08T16:17:57;19.40;52.30
51383;DHT22;37475;43.358;1.248;2023-03-08T16:20:23;19.30;52.40
51383;DHT22;37475;43.358;1.248;2023-03-08T16:22:50;19.20;53.70
51383;DHT22;37475;43.358;1.248;2023-03-08T16:25:17;19.20;52.80
51383;DHT22;37475;43.358;1.248;2023-03-08T16:27:42;19.10;54.10
51383;DHT22;37475;43.358;1.248;2023-03-08T16:30:10;19.00;54.20
51383;DHT22;37475;43.358;1.248;2023-03-08T16:32:37;19.10;53.20
51383;DHT22;37475;43.358;1.248;2023-03-08T16:35:03;19.10;53.00
51383;DHT22;37475;43.358;1.248;2023-03-08T16:37:29;19.30;52.90
51383;DHT22;37475;43.358;1.248;2023-03-08T16:39:54;19.20;52.20
51383;DHT22;37475;43.358;1.248;2023-03-08T16:42:23;19.30;51.90
51383;DHT22;37475;43.358;1.248;2023-03-08T16:44:51;19.40;51.90
51383;DHT22;37475;43.358;1.248;2023-03-08T16:47:19;19.30;51.70
51383;DHT22;37475;43.358;1.248;2023-03-08T16:49:46;19.30;51.60
51383;DHT22;37475;43.358;1.248;2023-03-08T16:52:12;19.30;51.40
51383;DHT22;37475;43.358;1.248;2023-03-08T16:54:38;19.20;51.50
51383;DHT22;37475;43.358;1.248;2023-03-08T16:57:04;19.10;51.80
51383;DHT22;37475;43.358;1.248;2023-03-08T16:59:30;19.10;51.00
51383;DHT22;37475;43.358;1.248;2023-03-08T17:01:56;19.10;52.10
51383;DHT22;37475;43.358;1.248;2023-03-08T17:04:22;19.00;53.30
51383;DHT22;37475;43.358;1.248;2023-03-08T17:06:49;18.70;53.40
51383;DHT22;37475;43.358;1.248;2023-03-08T17:09:15;18.60;54.80
51383;DHT22;37475;43.358;1.248;2023-03-08T17:11:41;18.40;55.30
51383;DHT22;37475;43.358;1.248;2023-03-08T17:14:11;18.30;54.90
51383;DHT22;37475;43.358;1.248;2023-03-08T17:16:37;18.30;56.00
51383;DHT22;37475;43.358;1.248;2023-03-08T17:19:06;18.10;57.20
51383;DHT22;37475;43.358;1.248;2023-03-08T17:21:33;18.10;58.20
51383;DHT22;37475;43.358;1.248;2023-03-08T17:24:05;17.90;58.20
51383;DHT22;37475;43.358;1.248;2023-03-08T17:26:34;17.80;58.50
51383;DHT22;37475;43.358;1.248;2023-03-08T17:29:01;17.60;59.80
51383;DHT22;37475;43.358;1.248;2023-03-08T17:31:27;17.60;59.90
51383;DHT22;37475;43.358;1.248;2023-03-08T17:33:53;17.50;60.10